Time;durP1;ratioP1;P1;durP2;ratioP2;P2;SDS_P1;SDS_P2;PMS_P1;PMS_P2;Temp;Humidity;BMP_temperature;BMP_pressure;BME280_temperature;BME280_humidity;BME280_pressure;Samples;Min_cycle;Max_cycle;Signal;HPM_P1;HPM_P2
2022/08/10 00:01:48;;;;;;;0.65;0.20;;;22.00;61.70;;;;;;5062186;28;20044;-83
2022/08/10 00:04:18;;;;;;;2.42;0.40;;;21.80;61.80;;;;;;5043237;28;20069;-83
2022/08/10 00:06:49;;;;;;;5.50;0.52;;;21.50;62.70;;;;;;5051022;28;20089;-83
2022/08/10 00:09:17;;;;;;;2.67;0.35;;;21.50;62.80;;;;;;5080927;28;20033;-82
2022/08/10 00:11:44;;;;;;;0.50;0.20;;;21.60;62.90;;;;;;5055094;28;20460;-84
2022/08/10 00:14:11;;;;;;;2.90;0.40;;;21.70;63.00;;;;;;5053864;28;20059;-83
2022/08/10 00:16:38;;;;;;;2.95;0.60;;;21.80;63.20;;;;;;5046361;28;20033;-84
2022/08/10 00:19:06;;;;;;;3.08;0.45;;;21.70;63.30;;;;;;5052781;28;20051;-84
2022/08/10 00:21:35;;;;;;;1.80;0.22;;;21.60;63.20;;;;;;5065193;28;20044;-84
2022/08/10 00:24:03;;;;;;;5.68;0.32;;;21.50;63.20;;;;;;5044003;28;20501;-83
2022/08/10 00:26:30;;;;;;;1.05;0.40;;;21.20;64.00;;;;;;5070904;28;20064;-83
2022/08/10 00:29:18;;;;;;;1.40;0.35;;;21.30;64.10;;;;;;5065903;28;20067;-84
2022/08/10 00:31:45;;;;;;;2.58;0.30;;;21.10;64.80;;;;;;5069785;28;20053;-83
2022/08/10 00:34:28;;;;;;;1.95;0.57;;;21.20;64.80;;;;;;5076878;28;22141;-84
2022/08/10 00:36:56;;;;;;;1.38;0.30;;;21.20;64.60;;;;;;5051307;28;20041;-84
2022/08/10 00:39:24;;;;;;;1.77;0.30;;;21.20;64.70;;;;;;5059186;28;20073;-83
2022/08/10 00:41:52;;;;;;;1.98;0.30;;;21.30;64.60;;;;;;5048821;28;20131;-83
2022/08/10 00:44:35;;;;;;;2.60;0.30;;;21.20;64.50;;;;;;5069659;28;20044;-82
2022/08/10 00:47:03;;;;;;;4.90;0.35;;;21.20;64.50;;;;;;5060242;28;20766;-85
2022/08/10 00:49:30;;;;;;;3.22;0.85;;;21.20;65.00;;;;;;5029328;28;20080;-84
2022/08/10 00:51:57;;;;;;;1.88;0.30;;;21.00;65.20;;;;;;5065669;28;20052;-83
2022/08/10 00:54:25;;;;;;;2.33;0.35;;;21.00;65.40;;;;;;5044724;28;20076;-84
2022/08/10 00:56:53;;;;;;;3.17;0.20;;;21.10;65.30;;;;;;5057235;28;20052;-83
2022/08/10 00:59:41;;;;;;;0.75;0.20;;;21.10;65.20;;;;;;5050364;28;20040;-84
2022/08/10 01:02:30;;;;;;;2.28;0.38;;;21.10;65.50;;;;;;5054547;28;20049;-84
2022/08/10 01:05:07;;;;;;;2.33;0.40;;;20.90;65.50;;;;;;5055843;28;20431;-84
2022/08/10 01:08:13;;;;;;;1.23;0.50;;;20.90;66.00;;;;;;5056219;28;20040;-83
2022/08/10 01:11:07;;;;;;;1.90;0.88;;;20.50;66.90;;;;;;5071446;28;20492;-85
2022/08/10 01:14:20;;;;;;;1.70;0.30;;;20.60;67.10;;;;;;5046949;28;20041;-83
2022/08/10 01:16:59;;;;;;;3.60;0.40;;;20.80;66.90;;;;;;5056060;28;20059;-83
2022/08/10 01:19:54;;;;;;;1.92;0.30;;;20.90;67.00;;;;;;5056645;28;20053;-83
2022/08/10 01:22:46;;;;;;;0.90;0.40;;;21.00;67.10;;;;;;5069365;28;20493;-82
2022/08/10 01:25:25;;;;;;;1.63;0.30;;;21.00;67.50;;;;;;5056508;28;20068;-83
2022/08/10 01:28:30;;;;;;;4.32;0.60;;;21.00;68.40;;;;;;5052853;28;20489;-83
2022/08/10 01:31:00;;;;;;;1.88;0.32;;;21.00;68.40;;;;;;5048013;28;20045;-82
2022/08/10 01:33:40;;;;;;;0.90;0.30;;;20.90;67.50;;;;;;5049835;28;20051;-84
2022/08/10 01:36:33;;;;;;;1.20;0.35;;;20.90;67.50;;;;;;5067382;28;20129;-83
2022/08/10 01:39:03;;;;;;;1.88;0.40;;;20.90;68.80;;;;;;5053994;28;20465;-83
2022/08/10 01:41:39;;;;;;;2.28;0.52;;;20.90;68.20;;;;;;5077856;28;20659;-83
2022/08/10 01:44:26;;;;;;;1.47;0.40;;;20.80;67.90;;;;;;5058434;28;20053;-84
2022/08/10 01:48:27;;;;;;;1.10;0.30;;;20.70;68.00;;;;;;5032795;28;20403;-83
2022/08/10 01:49:52;;;;;;;1.27;0.40;;;20.70;68.60;;;;;;5053734;28;20061;-83
2022/08/10 01:52:22;;;;;;;1.45;0.85;;;20.70;68.50;;;;;;5056407;28;20048;-83
2022/08/10 01:54:52;;;;;;;1.95;0.50;;;20.60;68.50;;;;;;5071606;28;20163;-83
2022/08/10 01:57:24;;;;;;;2.08;0.40;;;20.50;68.60;;;;;;5055390;28;20072;-84
2022/08/10 01:59:55;;;;;;;1.40;0.35;;;20.40;68.80;;;;;;5070006;28;20053;-84
2022/08/10 02:02:32;;;;;;;2.35;0.40;;;20.40;69.30;;;;;;5079435;28;20029;-84
2022/08/10 02:05:03;;;;;;;3.20;0.63;;;20.40;69.10;;;;;;5064217;28;20051;-84
2022/08/10 02:07:33;;;;;;;1.95;0.50;;;20.40;69.20;;;;;;5057954;28;20049;-86
2022/08/10 02:10:09;;;;;;;2.78;0.43;;;20.30;69.60;;;;;;5052874;28;20080;-84
2022/08/10 02:12:38;;;;;;;1.60;0.57;;;20.00;70.70;;;;;;5077184;28;20113;-84
2022/08/10 02:15:11;;;;;;;2.85;0.40;;;20.00;70.60;;;;;;5045256;28;20141;-85
2022/08/10 02:17:40;;;;;;;;;;;20.00;70.60;;;;;;5076346;28;20059;-84
2022/08/10 02:20:58;;;;;;;1.08;0.45;;;19.80;71.60;;;;;;5073131;28;20336;-83
2022/08/10 02:23:30;;;;;;;3.20;0.50;;;19.90;71.00;;;;;;5038557;28;20036;-84
2022/08/10 02:26:00;;;;;;;1.15;0.50;;;20.00;71.00;;;;;;5061308;28;20056;-85
2022/08/10 02:28:31;;;;;;;1.60;0.40;;;19.90;70.80;;;;;;5053892;28;20413;-84
2022/08/10 02:31:05;;;;;;;2.63;0.50;;;19.90;71.30;;;;;;5058853;28;20435;-84
2022/08/10 02:33:40;;;;;;;2.08;0.40;;;19.90;71.30;;;;;;5053292;28;20055;-84
2022/08/10 02:36:28;;;;;;;2.38;0.55;;;20.10;71.20;;;;;;5055345;28;20056;-84
2022/08/10 02:38:59;;;;;;;1.55;0.40;;;20.10;70.70;;;;;;5037577;28;20139;-85
2022/08/10 02:41:44;;;;;;;2.10;0.50;;;20.00;71.40;;;;;;5054592;28;20045;-83
2022/08/10 02:44:56;;;;;;;1.25;0.40;;;20.00;71.40;;;;;;5053035;28;20041;-86
2022/08/10 02:48:04;;;;;;;3.15;0.60;;;19.90;71.70;;;;;;5072431;28;20029;-84
2022/08/10 02:50:37;;;;;;;0.90;0.52;;;19.70;72.40;;;;;;5034443;28;20047;-83
2022/08/10 02:53:29;;;;;;;1.88;0.70;;;19.80;72.10;;;;;;5044098;28;20076;-84
2022/08/10 02:56:31;;;;;;;1.80;0.50;;;19.90;72.50;;;;;;5059651;28;20452;-85
2022/08/10 02:59:08;;;;;;;1.08;0.50;;;19.80;72.60;;;;;;5040697;28;20049;-84
2022/08/10 03:01:42;;;;;;;1.40;0.60;;;19.80;73.00;;;;;;5065184;28;20550;-85
2022/08/10 03:04:19;;;;;;;2.40;0.60;;;19.70;72.90;;;;;;5048133;28;20055;-84
2022/08/10 03:07:11;;;;;;;2.13;0.55;;;19.70;73.30;;;;;;5033705;28;20052;-84
2022/08/10 03:09:40;;;;;;;1.70;0.63;;;19.70;73.60;;;;;;5064345;28;20041;-85
2022/08/10 03:12:12;;;;;;;1.55;0.60;;;19.50;74.10;;;;;;5045584;28;20497;-85
2022/08/10 03:15:00;;;;;;;1.88;0.40;;;19.70;73.90;;;;;;5093825;28;20049;-85
2022/08/10 03:17:29;;;;;;;3.00;0.65;;;19.40;74.80;;;;;;5075556;28;20567;-84
2022/08/10 03:19:58;;;;;;;1.90;0.57;;;19.30;75.20;;;;;;5052161;28;20896;-85
2022/08/10 03:22:49;;;;;;;3.50;0.47;;;19.30;75.70;;;;;;5077055;28;20040;-87
2022/08/10 03:25:20;;;;;;;3.00;0.60;;;19.50;75.00;;;;;;5067485;28;20044;-85
2022/08/10 03:27:49;;;;;;;1.50;0.60;;;19.50;75.20;;;;;;5028915;28;20037;-87
2022/08/10 03:30:16;;;;;;;1.77;0.68;;;19.30;75.90;;;;;;5051148;28;20044;-84
2022/08/10 03:32:59;;;;;;;;;;;19.10;76.70;;;;;;5060172;28;20040;-85
2022/08/10 03:35:27;;;;;;;2.22;0.90;;;19.10;77.00;;;;;;5071690;28;19924;-87
2022/08/10 03:37:55;;;;;;;3.42;0.65;;;19.10;77.40;;;;;;5058483;28;20044;-85
2022/08/10 03:40:28;;;;;;;0.93;0.73;;;19.10;77.50;;;;;;5077674;28;20045;-84
2022/08/10 03:43:19;;;;;;;3.05;0.80;;;19.20;77.60;;;;;;5059243;28;20547;-86
2022/08/10 03:45:51;;;;;;;2.53;0.73;;;19.20;77.60;;;;;;5066865;28;20048;-85
2022/08/10 03:48:28;;;;;;;6.47;1.50;;;19.20;77.40;;;;;;5064940;28;20052;-84
2022/08/10 03:51:13;;;;;;;2.45;0.80;;;19.40;77.00;;;;;;5071514;28;20168;-84
2022/08/10 03:53:40;;;;;;;1.50;0.77;;;19.20;77.50;;;;;;5045828;28;20053;-85
2022/08/10 03:56:29;;;;;;;2.60;1.02;;;19.20;77.40;;;;;;5066701;28;20077;-83
2022/08/10 03:59:00;;;;;;;3.33;0.90;;;19.40;77.10;;;;;;5052563;28;20055;-82
2022/08/10 04:01:29;;;;;;;1.13;0.68;;;19.50;76.80;;;;;;5058485;28;20139;-84
2022/08/10 04:04:16;;;;;;;1.05;0.70;;;19.70;76.20;;;;;;5076152;28;20049;-84
2022/08/10 04:06:55;;;;;;;3.10;1.00;;;19.70;76.30;;;;;;5038870;28;20040;-83
2022/08/10 04:09:25;;;;;;;1.45;0.70;;;19.70;76.30;;;;;;5069372;28;20047;-84
2022/08/10 04:12:14;;;;;;;2.35;0.60;;;19.70;76.20;;;;;;5062202;28;20478;-84
2022/08/10 04:14:41;;;;;;;2.88;0.70;;;19.70;76.30;;;;;;5091426;28;20045;-84
2022/08/10 04:17:19;;;;;;;2.65;0.68;;;19.70;75.90;;;;;;5059800;28;20041;-86
2022/08/10 04:20:23;;;;;;;1.67;0.60;;;19.60;76.90;;;;;;5048806;28;20036;-84
2022/08/10 04:22:52;;;;;;;1.65;0.60;;;19.60;77.00;;;;;;5051712;28;20044;-85
2022/08/10 04:25:22;;;;;;;2.47;0.82;;;19.60;77.20;;;;;;5081423;28;20053;-85
2022/08/10 04:27:51;;;;;;;1.58;0.70;;;19.60;77.10;;;;;;5063252;28;20052;-84
2022/08/10 04:30:18;;;;;;;4.32;0.60;;;19.60;77.40;;;;;;5057113;28;20082;-84
2022/08/10 04:32:51;;;;;;;1.17;0.70;;;19.50;77.40;;;;;;5039041;28;20040;-84
2022/08/10 04:35:21;;;;;;;1.77;0.70;;;19.50;77.40;;;;;;5065264;28;20055;-85
2022/08/10 04:37:50;;;;;;;2.90;0.75;;;19.70;77.60;;;;;;5078009;28;20048;-85
2022/08/10 04:40:18;;;;;;;2.08;0.90;;;19.60;76.90;;;;;;5062735;28;20071;-83
2022/08/10 04:42:58;;;;;;;4.32;0.70;;;19.60;77.40;;;;;;5067044;28;20040;-86
2022/08/10 04:45:30;;;;;;;3.00;0.60;;;19.50;77.40;;;;;;5074323;28;20044;-84
2022/08/10 04:48:23;;;;;;;2.35;0.65;;;19.70;77.40;;;;;;5067374;28;20036;-88
2022/08/10 04:51:19;;;;;;;1.17;0.77;;;19.60;77.00;;;;;;5068196;28;20040;-85
2022/08/10 04:53:49;;;;;;;2.83;0.68;;;19.80;77.10;;;;;;5066437;28;20481;-84
2022/08/10 04:56:37;;;;;;;1.58;0.63;;;19.80;76.70;;;;;;5062733;28;20082;-86
2022/08/10 04:59:06;;;;;;;2.45;0.57;;;19.80;76.50;;;;;;5063735;28;20054;-85
2022/08/10 05:01:36;;;;;;;2.63;0.60;;;19.70;76.50;;;;;;5072645;28;20055;-85
2022/08/10 05:04:23;;;;;;;4.13;0.60;;;19.90;76.70;;;;;;5072262;28;20051;-85
2022/08/10 05:07:09;;;;;;;1.75;0.60;;;20.10;76.00;;;;;;5059599;28;20052;-87
2022/08/10 05:09:42;;;;;;;4.03;0.70;;;20.10;75.80;;;;;;5051524;28;20306;-85
2022/08/10 05:12:30;;;;;;;2.17;1.17;;;20.20;75.60;;;;;;5058317;28;20040;-84
2022/08/10 05:14:57;;;;;;;2.30;0.88;;;20.40;74.90;;;;;;5036253;28;20040;-84
2022/08/10 05:17:25;;;;;;;2.10;0.70;;;20.40;74.30;;;;;;5065691;28;20047;-83
2022/08/10 05:19:52;;;;;;;6.43;0.80;;;20.40;74.50;;;;;;5073381;28;20068;-86
2022/08/10 05:22:34;;;;;;;1.10;0.63;;;20.40;74.30;;;;;;5077137;28;20043;-85
2022/08/10 05:25:02;;;;;;;3.20;0.63;;;20.50;74.80;;;;;;5068688;28;20493;-82
2022/08/10 05:27:30;;;;;;;1.30;0.77;;;20.50;73.70;;;;;;5043983;28;20049;-84
2022/08/10 05:29:57;;;;;;;5.03;0.85;;;20.50;74.20;;;;;;5054892;28;20385;-82
2022/08/10 05:32:33;;;;;;;2.25;0.73;;;20.70;73.80;;;;;;5035872;28;20059;-86
2022/08/10 05:35:21;;;;;;;2.05;0.50;;;20.80;73.70;;;;;;5053273;28;20041;-85
2022/08/10 05:37:51;;;;;;;2.40;0.75;;;20.70;73.40;;;;;;5066299;28;20048;-87
2022/08/10 05:40:40;;;;;;;7.25;1.42;;;20.80;73.50;;;;;;5074778;28;20036;-83
2022/08/10 05:43:15;;;;;;;4.60;0.90;;;20.90;73.30;;;;;;5064949;28;20142;-81
2022/08/10 05:45:43;;;;;;;1.75;0.70;;;21.30;72.80;;;;;;5052017;28;20135;-82
2022/08/10 05:48:31;;;;;;;2.60;0.60;;;21.40;71.40;;;;;;5057579;28;20040;-88
2022/08/10 05:51:19;;;;;;;2.22;0.47;;;21.40;70.80;;;;;;5069105;28;21290;-82
2022/08/10 05:53:48;;;;;;;3.80;1.10;;;21.50;70.40;;;;;;5079970;28;20077;-85
2022/08/10 05:56:37;;;;;;;3.60;0.57;;;21.80;70.10;;;;;;5050581;28;20394;-83
2022/08/10 05:59:32;;;;;;;1.40;0.40;;;21.70;69.90;;;;;;5058246;28;20430;-86
2022/08/10 06:02:29;;;;;;;2.58;0.98;;;21.90;69.10;;;;;;5065601;28;20053;-85
2022/08/10 06:05:20;;;;;;;2.30;0.55;;;22.20;68.90;;;;;;5071298;28;20134;-81
2022/08/10 06:07:54;;;;;;;1.90;0.47;;;22.30;68.10;;;;;;5080086;28;20059;-82
2022/08/10 06:10:22;;;;;;;1.70;0.55;;;22.40;67.20;;;;;;5047010;28;20048;-82
2022/08/10 06:16:05;;;;;;;1.90;0.60;;;22.80;65.70;;;;;;5044455;28;20044;-84
2022/08/10 06:18:33;;;;;;;2.67;0.50;;;22.70;64.60;;;;;;5070425;28;20118;-84
2022/08/10 06:21:01;;;;;;;2.40;0.60;;;22.90;64.70;;;;;;5055501;28;20032;-83
2022/08/10 06:23:29;;;;;;;4.13;0.50;;;23.20;64.30;;;;;;5054955;28;20044;-79
2022/08/10 06:25:56;;;;;;;4.63;0.50;;;23.10;63.20;;;;;;5058282;28;20613;-79
2022/08/10 06:28:54;;;;;;;;;;;23.20;63.30;;;;;;5081542;28;20108;-82
2022/08/10 06:31:31;;;;;;;1.38;0.40;;;23.50;62.40;;;;;;5046563;28;19928;-82
2022/08/10 06:34:26;;;;;;;1.40;0.40;;;23.60;61.40;;;;;;5047753;28;20536;-83
2022/08/10 06:36:58;;;;;;;1.30;0.32;;;23.70;61.50;;;;;;5042624;28;20051;-83
2022/08/10 06:39:27;;;;;;;1.17;0.38;;;23.90;60.80;;;;;;5056754;28;20055;-81
2022/08/10 06:42:32;;;;;;;1.15;0.40;;;24.10;60.70;;;;;;5051409;28;20044;-81
2022/08/10 06:45:14;;;;;;;3.00;0.35;;;24.10;60.10;;;;;;5044694;28;20527;-81
2022/08/10 06:47:41;;;;;;;1.52;0.50;;;24.10;59.50;;;;;;5054902;28;20053;-80
2022/08/10 06:50:24;;;;;;;3.67;0.60;;;24.10;59.20;;;;;;5055166;28;20072;-82
2022/08/10 06:53:16;;;;;;;4.32;0.57;;;24.30;58.60;;;;;;5052394;28;20126;-82
2022/08/10 06:56:01;;;;;;;1.20;0.30;;;24.30;58.90;;;;;;5065423;28;20056;-82
2022/08/10 06:58:35;;;;;;;2.70;0.60;;;24.60;58.20;;;;;;5062333;28;20051;-82
2022/08/10 07:01:07;;;;;;;2.70;0.38;;;24.60;57.70;;;;;;5026792;28;20056;-82
2022/08/10 07:03:41;;;;;;;1.20;0.45;;;24.60;57.40;;;;;;5060717;28;20050;-81
2022/08/10 07:06:12;;;;;;;1.00;0.30;;;24.60;57.00;;;;;;5058624;28;20059;-79
2022/08/10 07:08:40;;;;;;;1.25;0.45;;;24.70;56.80;;;;;;5048656;28;20130;-82
2022/08/10 07:11:10;;;;;;;1.88;0.43;;;24.80;56.50;;;;;;5052474;28;20056;-80
2022/08/10 07:13:39;;;;;;;2.35;0.30;;;25.00;56.70;;;;;;5064451;28;20055;-82
2022/08/10 07:16:29;;;;;;;1.83;0.40;;;25.10;56.90;;;;;;5029843;28;20052;-81
2022/08/10 07:18:59;;;;;;;2.05;0.32;;;25.20;56.00;;;;;;5045469;28;20123;-81
2022/08/10 07:21:28;;;;;;;2.15;0.40;;;25.00;55.70;;;;;;5046292;28;20052;-81
2022/08/10 07:23:58;;;;;;;0.90;0.40;;;25.10;55.40;;;;;;5062391;28;20397;-82
2022/08/10 07:26:29;;;;;;;1.48;0.40;;;25.20;55.40;;;;;;5055396;28;20041;-81
2022/08/10 07:28:58;;;;;;;1.13;0.28;;;25.30;55.40;;;;;;5062691;28;20049;-83
2022/08/10 07:31:26;;;;;;;3.13;0.40;;;25.30;55.00;;;;;;5030524;28;20048;-82
2022/08/10 07:34:16;;;;;;;2.55;0.50;;;25.40;55.00;;;;;;5040670;28;20048;-80
2022/08/10 07:36:59;;;;;;;1.95;0.57;;;25.30;54.40;;;;;;5061897;28;20045;-83
2022/08/10 07:39:32;;;;;;;1.42;0.20;;;25.50;54.70;;;;;;5057148;28;20044;-81
2022/08/10 07:42:21;;;;;;;2.28;0.35;;;25.70;54.40;;;;;;5068891;28;20098;-81
2022/08/10 07:44:49;;;;;;;2.10;0.30;;;25.60;53.90;;;;;;5040594;28;20056;-81
2022/08/10 07:47:22;;;;;;;1.80;0.30;;;25.70;54.00;;;;;;5070363;28;20048;-79
2022/08/10 07:50:13;;;;;;;4.28;0.43;;;25.80;53.80;;;;;;5059221;28;20041;-84
2022/08/10 07:52:42;;;;;;;1.00;0.30;;;25.80;53.30;;;;;;5066144;28;20585;-80
2022/08/10 07:55:14;;;;;;;1.42;0.30;;;25.90;53.60;;;;;;5040587;28;20051;-84
2022/08/10 07:57:45;;;;;;;1.13;0.40;;;26.00;53.10;;;;;;5043808;28;20045;-83
2022/08/10 08:00:13;;;;;;;0.82;0.25;;;26.00;53.10;;;;;;5046041;28;20218;-80
2022/08/10 08:02:48;;;;;;;1.73;0.30;;;26.00;53.20;;;;;;5024101;28;20107;-82
2022/08/10 08:05:18;;;;;;;1.70;0.38;;;26.10;52.80;;;;;;5042534;28;20048;-80
2022/08/10 08:08:06;;;;;;;1.38;0.40;;;26.30;52.80;;;;;;5064753;28;20053;-80
2022/08/10 08:10:36;;;;;;;1.48;0.30;;;26.30;52.20;;;;;;5067168;28;20121;-80
2022/08/10 08:13:04;;;;;;;2.55;0.30;;;26.20;52.70;;;;;;5040737;28;20083;-80
2022/08/10 08:15:33;;;;;;;2.90;0.35;;;26.30;52.00;;;;;;5029476;28;20040;-81
2022/08/10 08:18:22;;;;;;;2.70;0.25;;;26.20;52.10;;;;;;5046228;28;20031;-80
2022/08/10 08:20:53;;;;;;;0.82;0.20;;;26.00;52.50;;;;;;5074539;28;20052;-78
2022/08/10 08:23:21;;;;;;;0.85;0.30;;;26.30;52.60;;;;;;5071756;28;20044;-80
2022/08/10 08:26:10;;;;;;;1.95;0.40;;;26.50;52.00;;;;;;5063463;28;20043;-80
2022/08/10 08:28:44;;;;;;;0.63;0.20;;;26.50;51.60;;;;;;5055167;28;20147;-83
2022/08/10 08:31:14;;;;;;;0.60;0.20;;;26.70;52.20;;;;;;5047286;28;20040;-81
2022/08/10 08:33:44;;;;;;;1.30;0.30;;;26.60;51.50;;;;;;5045132;28;20404;-80
2022/08/10 08:36:14;;;;;;;1.48;0.30;;;26.60;51.30;;;;;;5051200;28;20682;-81
2022/08/10 08:38:42;;;;;;;3.63;0.38;;;26.80;52.10;;;;;;5045853;28;20772;-82
2022/08/10 08:41:44;;;;;;;0.88;0.40;;;26.80;50.90;;;;;;5032290;28;20044;-78
2022/08/10 08:44:40;;;;;;;0.70;0.20;;;26.90;50.80;;;;;;5053329;28;20689;-78
2022/08/10 08:47:51;;;;;;;0.77;0.30;;;26.90;50.40;;;;;;5058229;28;20041;-81
2022/08/10 08:50:44;;;;;;;1.83;0.25;;;26.80;50.30;;;;;;5063415;28;20567;-80
2022/08/10 08:53:32;;;;;;;1.58;0.30;;;26.80;49.90;;;;;;5053465;28;20055;-79
2022/08/10 08:56:45;;;;;;;1.17;0.30;;;26.80;50.10;;;;;;5045977;28;20053;-80
2022/08/10 08:59:49;;;;;;;2.33;0.32;;;26.80;49.60;;;;;;5031611;28;20056;-79
2022/08/10 09:02:33;;;;;;;0.68;0.22;;;26.90;49.50;;;;;;5004132;28;20136;-80
2022/08/10 09:05:21;;;;;;;0.80;0.20;;;26.70;49.60;;;;;;5025739;28;20054;-79
2022/08/10 09:08:07;;;;;;;2.45;0.30;;;26.80;49.70;;;;;;5045434;28;20049;-79
2022/08/10 09:10:53;;;;;;;1.15;0.20;;;27.00;49.40;;;;;;5003275;28;20053;-80
2022/08/10 09:13:52;;;;;;;3.42;0.82;;;26.80;48.70;;;;;;5031226;28;20045;-81
2022/08/10 09:16:42;;;;;;;3.30;0.20;;;26.60;48.60;;;;;;5033296;28;20081;-79
2022/08/10 09:19:32;;;;;;;1.63;0.20;;;26.70;48.70;;;;;;5030139;28;20045;-78
2022/08/10 09:22:50;;;;;;;1.73;0.20;;;26.90;48.40;;;;;;5009888;28;20060;-80
2022/08/10 09:25:33;;;;;;;3.75;0.25;;;26.90;47.90;;;;;;5017423;28;20037;-80
2022/08/10 09:28:04;;;;;;;1.10;0.20;;;26.90;48.50;;;;;;5017680;28;20805;-80
2022/08/10 09:30:48;;;;;;;1.38;0.20;;;27.00;48.50;;;;;;5001259;28;20065;-80
2022/08/10 09:34:15;;;;;;;0.40;0.10;;;27.00;48.40;;;;;;5021447;28;20049;-81
2022/08/10 09:37:15;;;;;;;0.65;0.20;;;27.10;48.60;;;;;;4934477;28;20169;-82
2022/08/10 09:39:57;;;;;;;0.90;0.15;;;26.90;47.90;;;;;;5016805;28;20084;-81
2022/08/10 09:42:45;;;;;;;;;;;26.90;47.70;;;;;;5025678;28;20550;-80
2022/08/10 09:45:42;;;;;;;0.65;0.20;;;27.00;48.50;;;;;;5022031;28;19925;-79
2022/08/10 09:48:18;;;;;;;1.77;0.30;;;27.00;48.10;;;;;;5030351;28;20045;-78
2022/08/10 09:51:06;;;;;;;1.50;0.30;;;27.10;47.50;;;;;;5035149;28;20056;-80
2022/08/10 09:54:31;;;;;;;0.50;0.20;;;27.10;48.00;;;;;;5016003;28;20065;-80
2022/08/10 09:57:19;;;;;;;2.67;0.20;;;27.10;47.50;;;;;;5035766;28;20044;-80
2022/08/10 10:00:12;;;;;;;1.27;0.20;;;27.30;46.80;;;;;;5004174;28;20045;-80
2022/08/10 10:03:02;;;;;;;1.50;0.20;;;27.40;46.50;;;;;;5001316;28;20056;-79
2022/08/10 10:05:57;;;;;;;3.50;0.43;;;27.30;45.60;;;;;;5018807;28;20045;-80
2022/08/10 10:08:43;;;;;;;2.38;0.20;;;27.30;46.60;;;;;;5026375;28;20100;-81
2022/08/10 10:11:19;;;;;;;2.47;0.20;;;27.10;46.90;;;;;;5006146;28;20054;-80
2022/08/10 10:14:21;;;;;;;2.58;0.20;;;27.10;46.70;;;;;;4998960;28;20083;-79
2022/08/10 10:16:56;;;;;;;1.70;0.20;;;26.70;47.10;;;;;;5018680;28;20045;-80
2022/08/10 10:19:48;;;;;;;6.78;0.47;;;26.70;47.40;;;;;;5045810;28;20081;-81
2022/08/10 10:22:24;;;;;;;1.67;0.20;;;27.00;47.70;;;;;;5035297;28;20070;-79
2022/08/10 10:25:02;;;;;;;1.45;0.20;;;27.20;46.80;;;;;;5018705;28;20038;-80
2022/08/10 10:28:09;;;;;;;0.85;0.20;;;27.30;46.90;;;;;;5040163;28;20041;-79
2022/08/10 10:30:49;;;;;;;0.70;0.20;;;27.20;47.30;;;;;;5025248;28;20041;-79
2022/08/10 10:33:50;;;;;;;0.40;0.20;;;27.20;47.30;;;;;;5019663;28;20041;-78
2022/08/10 10:36:19;;;;;;;1.50;0.10;;;27.20;46.10;;;;;;5032651;28;20119;-82
2022/08/10 10:38:48;;;;;;;3.33;0.20;;;27.20;45.30;;;;;;5021513;28;20099;-81
2022/08/10 10:41:30;;;;;;;0.60;0.20;;;27.10;45.20;;;;;;5016793;28;20068;-80
2022/08/10 10:44:23;;;;;;;1.05;0.20;;;27.10;45.50;;;;;;5012942;28;20033;-79
2022/08/10 10:46:54;;;;;;;0.57;0.10;;;27.20;46.20;;;;;;5026952;28;20140;-81
2022/08/10 10:49:41;;;;;;;1.05;0.22;;;27.30;45.10;;;;;;5030983;28;20052;-78
2022/08/10 10:52:23;;;;;;;3.28;0.10;;;27.40;45.00;;;;;;5028400;28;20191;-79
2022/08/10 10:55:09;;;;;;;1.65;0.10;;;27.40;44.50;;;;;;5011122;28;20053;-80
2022/08/10 10:58:04;;;;;;;0.55;0.15;;;27.40;43.80;;;;;;5048445;28;20046;-80
2022/08/10 11:01:01;;;;;;;1.13;0.20;;;27.50;44.30;;;;;;5059696;28;20452;-81
2022/08/10 11:03:50;;;;;;;0.50;0.20;;;27.60;43.60;;;;;;5056065;28;20045;-82
2022/08/10 11:06:55;;;;;;;1.42;0.25;;;27.60;43.40;;;;;;5063119;28;20107;-81
2022/08/10 11:09:35;;;;;;;1.27;0.10;;;27.50;43.30;;;;;;5080651;28;20048;-80
2022/08/10 11:12:32;;;;;;;0.65;0.10;;;27.70;43.90;;;;;;5043256;28;20043;-81
2022/08/10 11:15:07;;;;;;;1.85;0.20;;;27.70;43.70;;;;;;5043916;28;20060;-79
2022/08/10 11:17:41;;;;;;;0.70;0.10;;;27.80;43.70;;;;;;5036771;28;20076;-81
2022/08/10 11:20:39;;;;;;;3.10;0.15;;;27.80;44.20;;;;;;5047252;28;20045;-80
2022/08/10 11:23:09;;;;;;;1.60;0.20;;;27.70;44.00;;;;;;5051804;28;20057;-79
2022/08/10 11:25:45;;;;;;;0.28;0.10;;;27.90;44.10;;;;;;5043764;28;20053;-79
2022/08/10 11:28:19;;;;;;;2.38;0.10;;;27.80;42.10;;;;;;5054873;28;20160;-80
2022/08/10 11:30:49;;;;;;;0.47;0.10;;;27.90;42.30;;;;;;5055845;28;20049;-79
2022/08/10 11:33:27;;;;;;;0.82;0.20;;;28.10;43.10;;;;;;5026729;28;20514;-80
2022/08/10 11:36:16;;;;;;;1.17;0.20;;;28.20;44.20;;;;;;5058230;28;20079;-79
2022/08/10 11:39:18;;;;;;;1.83;0.10;;;28.30;42.70;;;;;;5048078;28;20603;-79
2022/08/10 11:42:17;;;;;;;1.50;0.13;;;28.30;41.40;;;;;;5056923;28;20573;-82
2022/08/10 11:45:07;;;;;;;1.48;0.10;;;28.10;40.30;;;;;;5034439;28;20423;-80
2022/08/10 11:47:43;;;;;;;0.63;0.10;;;27.90;41.30;;;;;;5047264;28;20046;-80
2022/08/10 11:50:20;;;;;;;0.88;0.10;;;27.80;42.10;;;;;;5017560;28;20505;-79
2022/08/10 11:52:52;;;;;;;1.30;0.30;;;28.00;42.40;;;;;;5032247;28;20044;-80
2022/08/10 11:55:22;;;;;;;1.13;0.20;;;27.90;43.20;;;;;;5051387;28;20057;-81
2022/08/10 11:57:54;;;;;;;3.03;0.52;;;28.00;43.30;;;;;;5037725;28;20044;-81
2022/08/10 12:00:24;;;;;;;1.42;0.20;;;28.20;43.40;;;;;;5024126;28;20041;-83
2022/08/10 12:03:06;;;;;;;6.40;0.60;;;28.30;42.40;;;;;;5051226;28;20060;-81
2022/08/10 12:05:38;;;;;;;1.02;0.20;;;28.40;43.00;;;;;;5041560;28;20401;-81
2022/08/10 12:08:24;;;;;;;1.08;0.10;;;28.20;42.40;;;;;;5035727;28;20135;-79
2022/08/10 12:11:15;;;;;;;2.58;0.20;;;28.30;42.80;;;;;;5053255;28;20519;-83
2022/08/10 12:13:50;;;;;;;3.03;0.20;;;28.50;42.00;;;;;;5068520;28;20085;-80
2022/08/10 12:16:41;;;;;;;1.45;0.10;;;28.70;42.90;;;;;;5047486;28;20049;-81
2022/08/10 12:19:36;;;;;;;1.85;0.35;;;28.50;42.20;;;;;;5052051;28;20045;-79
2022/08/10 12:22:54;;;;;;;1.45;0.20;;;28.00;42.70;;;;;;5055996;28;20047;-86
2022/08/10 12:25:34;;;;;;;0.98;0.25;;;27.70;43.50;;;;;;4997573;28;20132;-83
2022/08/10 12:28:30;;;;;;;1.48;0.10;;;27.90;43.90;;;;;;5059725;28;20041;-81
2022/08/10 12:31:29;;;;;;;1.40;0.20;;;28.10;44.40;;;;;;5039926;28;20119;-80
2022/08/10 12:34:08;;;;;;;2.40;0.20;;;28.20;43.30;;;;;;5054154;28;20937;-85
2022/08/10 12:36:41;;;;;;;0.30;0.10;;;27.90;43.30;;;;;;5058499;28;20053;-83
2022/08/10 12:39:20;;;;;;;0.30;0.10;;;27.80;44.10;;;;;;5049800;28;20123;-81
2022/08/10 12:41:52;;;;;;;0.30;0.10;;;28.00;44.00;;;;;;5057757;28;20068;-82
2022/08/10 12:44:43;;;;;;;0.30;0.10;;;28.20;44.20;;;;;;5072175;28;20056;-82
2022/08/10 12:47:33;;;;;;;1.70;0.25;;;28.40;43.20;;;;;;5058364;28;20624;-81
2022/08/10 12:50:18;;;;;;;0.68;0.17;;;28.60;42.70;;;;;;5051553;28;20094;-83
2022/08/10 12:53:24;;;;;;;2.25;0.20;;;28.30;43.20;;;;;;5077958;28;20480;-81
2022/08/10 12:55:52;;;;;;;0.60;0.10;;;28.20;44.00;;;;;;5030901;28;20052;-85
2022/08/10 12:58:24;;;;;;;1.65;0.30;;;28.00;44.30;;;;;;5043214;28;20749;-81
2022/08/10 13:01:12;;;;;;;4.75;0.20;;;27.80;43.40;;;;;;5046800;28;20124;-82
2022/08/10 13:03:49;;;;;;;2.15;0.20;;;27.60;44.00;;;;;;5082980;28;20160;-83
2022/08/10 13:06:45;;;;;;;0.93;0.20;;;27.80;43.80;;;;;;5053378;28;20051;-83
2022/08/10 13:09:20;;;;;;;1.48;0.47;;;28.00;44.10;;;;;;5047928;28;20776;-83
2022/08/10 13:11:59;;;;;;;0.80;0.20;;;28.00;43.50;;;;;;5050858;28;20075;-81
2022/08/10 13:15:18;;;;;;;0.50;0.20;;;28.10;43.90;;;;;;5043388;28;20045;-84
2022/08/10 13:18:08;;;;;;;1.13;0.20;;;28.20;42.50;;;;;;5050339;28;20448;-84
2022/08/10 13:20:51;;;;;;;0.40;0.17;;;28.60;42.60;;;;;;5081909;28;20051;-82
2022/08/10 13:23:26;;;;;;;0.63;0.20;;;28.80;41.10;;;;;;5065357;28;20053;-82
2022/08/10 13:25:58;;;;;;;0.98;0.20;;;28.50;41.10;;;;;;5046393;28;20478;-84
2022/08/10 13:28:47;;;;;;;0.35;0.10;;;28.30;42.10;;;;;;5038710;28;20049;-80
2022/08/10 13:31:22;;;;;;;1.45;0.40;;;28.10;42.60;;;;;;5047757;28;20048;-81
2022/08/10 13:34:20;;;;;;;0.77;0.20;;;28.00;43.00;;;;;;5031935;28;20075;-81
2022/08/10 13:37:09;;;;;;;1.42;0.35;;;27.80;43.30;;;;;;5059634;28;20045;-83
2022/08/10 13:39:44;;;;;;;1.50;0.17;;;27.70;43.40;;;;;;5065924;28;20049;-85
2022/08/10 13:42:36;;;;;;;2.80;0.25;;;27.50;43.50;;;;;;5041991;28;20049;-82
2022/08/10 13:45:08;;;;;;;0.45;0.10;;;27.60;43.70;;;;;;5052876;28;20088;-82
2022/08/10 13:47:36;;;;;;;0.63;0.20;;;27.90;43.60;;;;;;5054685;28;20046;-83
2022/08/10 13:50:26;;;;;;;0.38;0.20;;;28.20;43.50;;;;;;5063069;28;20903;-84
2022/08/10 13:53:03;;;;;;;0.32;0.13;;;28.30;43.50;;;;;;5042917;28;20044;-79
2022/08/10 13:55:54;;;;;;;0.28;0.10;;;28.60;43.20;;;;;;5062017;28;20049;-81
2022/08/10 13:58:32;;;;;;;0.85;0.10;;;28.40;42.30;;;;;;5045980;28;20056;-83
2022/08/10 14:01:08;;;;;;;0.90;0.10;;;28.40;42.50;;;;;;5062479;28;20099;-81